sensor_id;sensor_type;location;lat;lon;timestamp;P1;durP1;ratioP1;P2;durP2;ratioP2
8353;SDS011;4656;48.090;11.498;2023-11-21T00:01:37;5.40;;;1.67;;
8353;SDS011;4656;48.090;11.498;2023-11-21T00:03:39;5.65;;;1.40;;
8353;SDS011;4656;48.090;11.498;2023-11-21T00:05:42;4.43;;;1.50;;
8353;SDS011;4656;48.090;11.498;2023-11-21T00:07:43;6.00;;;1.80;;
8353;SDS011;4656;48.090;11.498;2023-11-21T00:09:45;7.22;;;1.67;;
8353;SDS011;4656;48.090;11.498;2023-11-21T00:11:47;6.30;;;1.55;;
8353;SDS011;4656;48.090;11.498;2023-11-21T00:13:49;4.93;;;1.40;;
8353;SDS011;4656;48.090;11.498;2023-11-21T00:15:52;4.63;;;1.63;;
8353;SDS011;4656;48.090;11.498;2023-11-21T00:17:54;5.88;;;1.50;;
8353;SDS011;4656;48.090;11.498;2023-11-21T00:19:57;3.47;;;1.27;;
8353;SDS011;4656;48.090;11.498;2023-11-21T00:22:00;5.03;;;1.73;;
8353;SDS011;4656;48.090;11.498;2023-11-21T00:24:02;3.65;;;1.70;;
8353;SDS011;4656;48.090;11.498;2023-11-21T00:26:04;3.60;;;1.40;;
8353;SDS011;4656;48.090;11.498;2023-11-21T00:28:06;6.77;;;1.70;;
8353;SDS011;4656;48.090;11.498;2023-11-21T00:30:09;6.18;;;1.65;;
8353;SDS011;4656;48.090;11.498;2023-11-21T00:32:11;3.35;;;1.30;;
8353;SDS011;4656;48.090;11.498;2023-11-21T00:34:12;3.90;;;1.48;;
8353;SDS011;4656;48.090;11.498;2023-11-21T00:36:16;3.78;;;1.35;;
8353;SDS011;4656;48.090;11.498;2023-11-21T00:38:18;8.60;;;1.55;;
8353;SDS011;4656;48.090;11.498;2023-11-21T00:40:20;5.07;;;1.48;;
8353;SDS011;4656;48.090;11.498;2023-11-21T00:42:22;6.55;;;1.75;;
8353;SDS011;4656;48.090;11.498;2023-11-21T00:44:24;5.18;;;1.45;;
8353;SDS011;4656;48.090;11.498;2023-11-21T00:46:25;9.38;;;1.60;;
8353;SDS011;4656;48.090;11.498;2023-11-21T00:48:29;8.63;;;1.90;;
8353;SDS011;4656;48.090;11.498;2023-11-21T00:50:31;3.58;;;1.60;;
8353;SDS011;4656;48.090;11.498;2023-11-21T00:52:34;3.65;;;1.77;;
8353;SDS011;4656;48.090;11.498;2023-11-21T00:54:36;5.82;;;1.55;;
8353;SDS011;4656;48.090;11.498;2023-11-21T00:56:38;2.40;;;1.40;;
8353;SDS011;4656;48.090;11.498;2023-11-21T00:58:41;6.65;;;1.50;;
8353;SDS011;4656;48.090;11.498;2023-11-21T01:00:43;4.85;;;1.60;;
8353;SDS011;4656;48.090;11.498;2023-11-21T01:02:47;4.60;;;1.70;;
8353;SDS011;4656;48.090;11.498;2023-11-21T01:04:49;5.73;;;1.70;;
8353;SDS011;4656;48.090;11.498;2023-11-21T01:06:51;5.32;;;1.60;;
8353;SDS011;4656;48.090;11.498;2023-11-21T01:08:55;7.30;;;1.70;;
8353;SDS011;4656;48.090;11.498;2023-11-21T01:10:57;3.97;;;1.60;;
8353;SDS011;4656;48.090;11.498;2023-11-21T01:12:59;6.78;;;1.60;;
8353;SDS011;4656;48.090;11.498;2023-11-21T01:15:02;7.95;;;2.08;;
8353;SDS011;4656;48.090;11.498;2023-11-21T01:17:04;5.43;;;1.58;;
8353;SDS011;4656;48.090;11.498;2023-11-21T01:19:07;4.50;;;1.90;;
8353;SDS011;4656;48.090;11.498;2023-11-21T01:21:09;3.00;;;1.50;;
8353;SDS011;4656;48.090;11.498;2023-11-21T01:23:12;6.05;;;1.95;;
8353;SDS011;4656;48.090;11.498;2023-11-21T01:25:15;8.57;;;1.88;;
8353;SDS011;4656;48.090;11.498;2023-11-21T01:27:18;4.85;;;1.55;;
8353;SDS011;4656;48.090;11.498;2023-11-21T01:29:20;6.65;;;1.70;;
8353;SDS011;4656;48.090;11.498;2023-11-21T01:31:22;4.38;;;1.45;;
8353;SDS011;4656;48.090;11.498;2023-11-21T01:33:23;6.20;;;1.83;;
8353;SDS011;4656;48.090;11.498;2023-11-21T01:35:26;7.90;;;1.73;;
8353;SDS011;4656;48.090;11.498;2023-11-21T01:37:28;6.15;;;1.73;;
8353;SDS011;4656;48.090;11.498;2023-11-21T01:39:30;7.67;;;2.00;;
8353;SDS011;4656;48.090;11.498;2023-11-21T01:41:34;7.07;;;1.80;;
8353;SDS011;4656;48.090;11.498;2023-11-21T01:43:36;6.95;;;1.80;;
8353;SDS011;4656;48.090;11.498;2023-11-21T01:45:39;6.22;;;1.60;;
8353;SDS011;4656;48.090;11.498;2023-11-21T01:47:41;7.13;;;1.67;;
8353;SDS011;4656;48.090;11.498;2023-11-21T01:49:43;6.20;;;1.67;;
8353;SDS011;4656;48.090;11.498;2023-11-21T01:51:46;2.63;;;1.98;;
8353;SDS011;4656;48.090;11.498;2023-11-21T01:53:50;3.13;;;1.63;;
8353;SDS011;4656;48.090;11.498;2023-11-21T01:55:52;5.90;;;1.70;;
8353;SDS011;4656;48.090;11.498;2023-11-21T01:57:56;3.60;;;1.50;;
8353;SDS011;4656;48.090;11.498;2023-11-21T01:59:58;4.15;;;1.58;;
8353;SDS011;4656;48.090;11.498;2023-11-21T02:02:15;3.55;;;1.58;;
8353;SDS011;4656;48.090;11.498;2023-11-21T02:04:17;3.83;;;1.63;;
8353;SDS011;4656;48.090;11.498;2023-11-21T02:06:21;3.27;;;1.67;;
8353;SDS011;4656;48.090;11.498;2023-11-21T02:08:24;6.60;;;1.80;;
8353;SDS011;4656;48.090;11.498;2023-11-21T02:10:27;5.85;;;1.70;;
8353;SDS011;4656;48.090;11.498;2023-11-21T02:12:29;5.55;;;1.60;;
8353;SDS011;4656;48.090;11.498;2023-11-21T02:14:32;2.80;;;1.40;;
8353;SDS011;4656;48.090;11.498;2023-11-21T02:16:35;4.25;;;1.70;;
8353;SDS011;4656;48.090;11.498;2023-11-21T02:18:38;4.60;;;1.45;;
8353;SDS011;4656;48.090;11.498;2023-11-21T02:20:40;7.25;;;1.75;;
8353;SDS011;4656;48.090;11.498;2023-11-21T02:22:43;2.83;;;1.50;;
8353;SDS011;4656;48.090;11.498;2023-11-21T02:24:45;2.55;;;1.48;;
8353;SDS011;4656;48.090;11.498;2023-11-21T02:26:48;4.07;;;1.40;;
8353;SDS011;4656;48.090;11.498;2023-11-21T02:28:51;5.18;;;1.50;;
8353;SDS011;4656;48.090;11.498;2023-11-21T02:30:53;3.25;;;1.67;;
8353;SDS011;4656;48.090;11.498;2023-11-21T02:32:58;7.47;;;1.90;;
8353;SDS011;4656;48.090;11.498;2023-11-21T02:35:00;8.02;;;1.77;;
8353;SDS011;4656;48.090;11.498;2023-11-21T02:37:01;7.82;;;1.65;;
8353;SDS011;4656;48.090;11.498;2023-11-21T02:39:03;4.60;;;1.48;;
8353;SDS011;4656;48.090;11.498;2023-11-21T02:41:08;9.85;;;1.85;;
8353;SDS011;4656;48.090;11.498;2023-11-21T02:43:11;15.70;;;1.98;;
8353;SDS011;4656;48.090;11.498;2023-11-21T02:45:14;9.35;;;2.00;;
8353;SDS011;4656;48.090;11.498;2023-11-21T02:47:17;5.05;;;1.63;;
8353;SDS011;4656;48.090;11.498;2023-11-21T02:49:19;6.22;;;1.70;;
8353;SDS011;4656;48.090;11.498;2023-11-21T02:51:21;8.68;;;1.77;;
8353;SDS011;4656;48.090;11.498;2023-11-21T02:53:23;7.63;;;1.70;;
8353;SDS011;4656;48.090;11.498;2023-11-21T02:55:26;5.85;;;1.58;;
8353;SDS011;4656;48.090;11.498;2023-11-21T02:57:29;7.85;;;1.45;;
8353;SDS011;4656;48.090;11.498;2023-11-21T02:59:31;5.15;;;1.70;;
8353;SDS011;4656;48.090;11.498;2023-11-21T03:01:33;7.43;;;1.88;;
8353;SDS011;4656;48.090;11.498;2023-11-21T03:03:35;6.60;;;1.58;;
8353;SDS011;4656;48.090;11.498;2023-11-21T03:05:39;6.78;;;1.70;;
8353;SDS011;4656;48.090;11.498;2023-11-21T03:07:41;6.05;;;1.80;;
8353;SDS011;4656;48.090;11.498;2023-11-21T03:09:42;2.55;;;1.40;;
8353;SDS011;4656;48.090;11.498;2023-11-21T03:11:45;3.08;;;1.40;;
8353;SDS011;4656;48.090;11.498;2023-11-21T03:13:48;9.27;;;1.70;;
8353;SDS011;4656;48.090;11.498;2023-11-21T03:15:51;5.22;;;1.60;;
8353;SDS011;4656;48.090;11.498;2023-11-21T03:17:52;3.60;;;1.65;;
8353;SDS011;4656;48.090;11.498;2023-11-21T03:19:54;7.20;;;1.58;;
8353;SDS011;4656;48.090;11.498;2023-11-21T03:21:57;4.73;;;1.83;;
8353;SDS011;4656;48.090;11.498;2023-11-21T03:23:59;4.55;;;1.38;;
8353;SDS011;4656;48.090;11.498;2023-11-21T03:26:01;4.22;;;1.35;;
8353;SDS011;4656;48.090;11.498;2023-11-21T03:28:03;4.80;;;1.20;;
8353;SDS011;4656;48.090;11.498;2023-11-21T03:30:07;3.17;;;1.20;;
8353;SDS011;4656;48.090;11.498;2023-11-21T03:32:11;3.22;;;1.40;;
8353;SDS011;4656;48.090;11.498;2023-11-21T03:34:14;3.53;;;1.27;;
8353;SDS011;4656;48.090;11.498;2023-11-21T03:36:16;3.05;;;1.33;;
8353;SDS011;4656;48.090;11.498;2023-11-21T03:38:18;7.13;;;1.40;;
8353;SDS011;4656;48.090;11.498;2023-11-21T03:40:19;3.85;;;1.42;;
8353;SDS011;4656;48.090;11.498;2023-11-21T03:42:21;2.35;;;1.40;;
8353;SDS011;4656;48.090;11.498;2023-11-21T03:44:23;3.53;;;1.30;;
8353;SDS011;4656;48.090;11.498;2023-11-21T03:46:26;5.82;;;1.23;;
8353;SDS011;4656;48.090;11.498;2023-11-21T03:48:28;1.90;;;0.93;;
8353;SDS011;4656;48.090;11.498;2023-11-21T03:50:31;2.28;;;0.98;;
8353;SDS011;4656;48.090;11.498;2023-11-21T03:52:33;4.53;;;1.30;;
8353;SDS011;4656;48.090;11.498;2023-11-21T03:54:35;2.60;;;1.20;;
8353;SDS011;4656;48.090;11.498;2023-11-21T03:56:37;4.90;;;1.30;;
8353;SDS011;4656;48.090;11.498;2023-11-21T03:58:39;4.35;;;1.45;;
8353;SDS011;4656;48.090;11.498;2023-11-21T04:00:41;3.78;;;1.30;;
8353;SDS011;4656;48.090;11.498;2023-11-21T04:02:45;4.30;;;1.30;;
8353;SDS011;4656;48.090;11.498;2023-11-21T04:04:47;5.80;;;1.20;;
8353;SDS011;4656;48.090;11.498;2023-11-21T04:06:49;5.75;;;1.33;;
8353;SDS011;4656;48.090;11.498;2023-11-21T04:08:52;4.78;;;1.45;;
8353;SDS011;4656;48.090;11.498;2023-11-21T04:10:54;5.90;;;1.17;;
8353;SDS011;4656;48.090;11.498;2023-11-21T04:12:56;3.05;;;0.90;;
8353;SDS011;4656;48.090;11.498;2023-11-21T04:14:58;7.35;;;1.30;;
8353;SDS011;4656;48.090;11.498;2023-11-21T04:17:00;2.95;;;1.35;;
8353;SDS011;4656;48.090;11.498;2023-11-21T04:19:05;4.55;;;1.23;;
8353;SDS011;4656;48.090;11.498;2023-11-21T04:21:09;3.03;;;1.35;;
8353;SDS011;4656;48.090;11.498;2023-11-21T04:23:10;2.30;;;1.05;;
8353;SDS011;4656;48.090;11.498;2023-11-21T04:25:14;3.80;;;1.20;;
8353;SDS011;4656;48.090;11.498;2023-11-21T04:27:17;2.50;;;1.40;;
8353;SDS011;4656;48.090;11.498;2023-11-21T04:29:19;2.50;;;1.00;;
8353;SDS011;4656;48.090;11.498;2023-11-21T04:31:21;2.67;;;1.38;;
8353;SDS011;4656;48.090;11.498;2023-11-21T04:33:23;4.55;;;1.40;;
8353;SDS011;4656;48.090;11.498;2023-11-21T04:35:26;5.85;;;1.50;;
8353;SDS011;4656;48.090;11.498;2023-11-21T04:37:29;2.17;;;1.20;;
8353;SDS011;4656;48.090;11.498;2023-11-21T04:39:31;2.97;;;1.13;;
8353;SDS011;4656;48.090;11.498;2023-11-21T04:41:33;3.55;;;1.13;;
8353;SDS011;4656;48.090;11.498;2023-11-21T04:43:36;3.28;;;1.20;;
8353;SDS011;4656;48.090;11.498;2023-11-21T04:45:38;3.40;;;1.20;;
8353;SDS011;4656;48.090;11.498;2023-11-21T04:47:41;4.78;;;1.58;;
8353;SDS011;4656;48.090;11.498;2023-11-21T04:49:43;5.45;;;1.25;;
8353;SDS011;4656;48.090;11.498;2023-11-21T04:51:49;5.25;;;1.38;;
8353;SDS011;4656;48.090;11.498;2023-11-21T04:53:51;5.38;;;1.30;;
8353;SDS011;4656;48.090;11.498;2023-11-21T04:55:53;3.20;;;1.40;;
8353;SDS011;4656;48.090;11.498;2023-11-21T04:57:55;4.15;;;1.20;;
8353;SDS011;4656;48.090;11.498;2023-11-21T04:59:58;2.38;;;1.10;;
8353;SDS011;4656;48.090;11.498;2023-11-21T05:01:59;4.38;;;1.20;;
8353;SDS011;4656;48.090;11.498;2023-11-21T05:04:01;2.10;;;1.10;;
8353;SDS011;4656;48.090;11.498;2023-11-21T05:06:03;1.85;;;1.10;;
8353;SDS011;4656;48.090;11.498;2023-11-21T05:08:06;3.05;;;1.13;;
8353;SDS011;4656;48.090;11.498;2023-11-21T05:10:09;2.90;;;1.20;;
8353;SDS011;4656;48.090;11.498;2023-11-21T05:12:12;2.53;;;1.10;;
8353;SDS011;4656;48.090;11.498;2023-11-21T05:14:14;1.60;;;1.10;;
8353;SDS011;4656;48.090;11.498;2023-11-21T05:16:16;1.77;;;1.20;;
8353;SDS011;4656;48.090;11.498;2023-11-21T05:18:19;2.85;;;1.20;;
8353;SDS011;4656;48.090;11.498;2023-11-21T05:20:21;2.83;;;1.20;;
8353;SDS011;4656;48.090;11.498;2023-11-21T05:22:23;2.70;;;1.15;;
8353;SDS011;4656;48.090;11.498;2023-11-21T05:24:27;4.72;;;1.35;;
8353;SDS011;4656;48.090;11.498;2023-11-21T05:26:29;2.92;;;1.35;;
8353;SDS011;4656;48.090;11.498;2023-11-21T05:28:31;2.42;;;1.20;;
8353;SDS011;4656;48.090;11.498;2023-11-21T05:30:32;4.70;;;1.30;;
8353;SDS011;4656;48.090;11.498;2023-11-21T05:32:34;2.40;;;1.20;;
8353;SDS011;4656;48.090;11.498;2023-11-21T05:34:36;2.67;;;1.30;;
8353;SDS011;4656;48.090;11.498;2023-11-21T05:36:38;4.53;;;1.40;;
8353;SDS011;4656;48.090;11.498;2023-11-21T05:38:40;2.23;;;1.50;;
8353;SDS011;4656;48.090;11.498;2023-11-21T05:40:44;5.82;;;1.10;;
8353;SDS011;4656;48.090;11.498;2023-11-21T05:42:46;6.28;;;1.55;;
8353;SDS011;4656;48.090;11.498;2023-11-21T05:44:48;3.70;;;1.20;;
8353;SDS011;4656;48.090;11.498;2023-11-21T05:46:49;2.80;;;1.13;;
8353;SDS011;4656;48.090;11.498;2023-11-21T05:48:51;2.85;;;1.25;;
8353;SDS011;4656;48.090;11.498;2023-11-21T05:50:53;2.17;;;1.33;;
8353;SDS011;4656;48.090;11.498;2023-11-21T05:52:55;3.85;;;1.30;;
8353;SDS011;4656;48.090;11.498;2023-11-21T05:54:59;2.67;;;1.70;;
8353;SDS011;4656;48.090;11.498;2023-11-21T05:57:03;4.68;;;1.40;;
8353;SDS011;4656;48.090;11.498;2023-11-21T05:59:05;4.28;;;1.27;;
8353;SDS011;4656;48.090;11.498;2023-11-21T06:01:07;3.90;;;1.40;;
8353;SDS011;4656;48.090;11.498;2023-11-21T06:03:12;2.10;;;1.38;;
8353;SDS011;4656;48.090;11.498;2023-11-21T06:05:15;2.92;;;1.48;;
8353;SDS011;4656;48.090;11.498;2023-11-21T06:07:18;3.10;;;1.20;;
8353;SDS011;4656;48.090;11.498;2023-11-21T06:09:20;2.13;;;1.10;;
8353;SDS011;4656;48.090;11.498;2023-11-21T06:11:22;2.55;;;1.45;;
8353;SDS011;4656;48.090;11.498;2023-11-21T06:13:26;3.03;;;1.40;;
8353;SDS011;4656;48.090;11.498;2023-11-21T06:15:28;1.40;;;1.30;;
8353;SDS011;4656;48.090;11.498;2023-11-21T06:17:30;3.00;;;1.40;;
8353;SDS011;4656;48.090;11.498;2023-11-21T06:19:33;4.30;;;1.45;;
8353;SDS011;4656;48.090;11.498;2023-11-21T06:21:35;4.18;;;1.40;;
8353;SDS011;4656;48.090;11.498;2023-11-21T06:23:38;2.10;;;1.20;;
8353;SDS011;4656;48.090;11.498;2023-11-21T06:25:41;3.43;;;1.30;;
8353;SDS011;4656;48.090;11.498;2023-11-21T06:27:44;2.60;;;1.20;;
8353;SDS011;4656;48.090;11.498;2023-11-21T06:29:47;3.10;;;1.40;;
8353;SDS011;4656;48.090;11.498;2023-11-21T06:31:49;7.95;;;3.13;;
8353;SDS011;4656;48.090;11.498;2023-11-21T06:33:50;4.45;;;1.98;;
8353;SDS011;4656;48.090;11.498;2023-11-21T06:35:53;3.13;;;1.48;;
8353;SDS011;4656;48.090;11.498;2023-11-21T06:37:55;2.25;;;1.10;;
8353;SDS011;4656;48.090;11.498;2023-11-21T06:39:57;2.90;;;1.50;;
8353;SDS011;4656;48.090;11.498;2023-11-21T06:41:59;3.30;;;1.20;;
8353;SDS011;4656;48.090;11.498;2023-11-21T06:44:01;1.90;;;1.10;;
8353;SDS011;4656;48.090;11.498;2023-11-21T06:46:06;2.90;;;1.30;;
8353;SDS011;4656;48.090;11.498;2023-11-21T06:48:08;1.65;;;1.10;;
8353;SDS011;4656;48.090;11.498;2023-11-21T06:50:10;3.00;;;1.17;;
8353;SDS011;4656;48.090;11.498;2023-11-21T06:52:11;2.22;;;1.00;;
8353;SDS011;4656;48.090;11.498;2023-11-21T06:54:13;2.28;;;1.17;;
8353;SDS011;4656;48.090;11.498;2023-11-21T06:56:16;1.63;;;1.15;;
8353;SDS011;4656;48.090;11.498;2023-11-21T06:58:18;2.53;;;1.10;;
8353;SDS011;4656;48.090;11.498;2023-11-21T07:00:19;3.85;;;1.10;;
8353;SDS011;4656;48.090;11.498;2023-11-21T07:02:23;1.40;;;1.27;;
8353;SDS011;4656;48.090;11.498;2023-11-21T07:04:24;2.03;;;1.13;;
8353;SDS011;4656;48.090;11.498;2023-11-21T07:06:27;1.00;;;1.00;;
8353;SDS011;4656;48.090;11.498;2023-11-21T07:08:29;3.08;;;1.30;;
8353;SDS011;4656;48.090;11.498;2023-11-21T07:10:31;3.22;;;1.20;;
8353;SDS011;4656;48.090;11.498;2023-11-21T07:12:33;2.17;;;1.30;;
8353;SDS011;4656;48.090;11.498;2023-11-21T07:14:35;1.10;;;1.00;;
8353;SDS011;4656;48.090;11.498;2023-11-21T07:16:39;1.85;;;1.10;;
8353;SDS011;4656;48.090;11.498;2023-11-21T07:18:42;2.25;;;1.20;;
8353;SDS011;4656;48.090;11.498;2023-11-21T07:20:44;2.67;;;1.10;;
8353;SDS011;4656;48.090;11.498;2023-11-21T07:22:46;1.60;;;1.10;;
8353;SDS011;4656;48.090;11.498;2023-11-21T07:24:48;2.03;;;1.10;;
8353;SDS011;4656;48.090;11.498;2023-11-21T07:26:51;1.88;;;1.15;;
8353;SDS011;4656;48.090;11.498;2023-11-21T07:28:56;1.40;;;1.10;;
8353;SDS011;4656;48.090;11.498;2023-11-21T07:30:58;1.60;;;1.23;;
8353;SDS011;4656;48.090;11.498;2023-11-21T07:33:00;4.20;;;1.60;;
8353;SDS011;4656;48.090;11.498;2023-11-21T07:35:04;2.05;;;1.30;;
8353;SDS011;4656;48.090;11.498;2023-11-21T07:37:08;1.00;;;0.90;;
8353;SDS011;4656;48.090;11.498;2023-11-21T07:39:10;1.30;;;1.00;;
8353;SDS011;4656;48.090;11.498;2023-11-21T07:41:12;0.98;;;0.93;;
8353;SDS011;4656;48.090;11.498;2023-11-21T07:43:15;1.40;;;1.08;;
8353;SDS011;4656;48.090;11.498;2023-11-21T07:45:19;3.00;;;1.40;;
8353;SDS011;4656;48.090;11.498;2023-11-21T07:47:22;2.50;;;1.10;;
8353;SDS011;4656;48.090;11.498;2023-11-21T07:49:27;0.95;;;0.85;;
8353;SDS011;4656;48.090;11.498;2023-11-21T07:51:30;3.83;;;1.00;;
8353;SDS011;4656;48.090;11.498;2023-11-21T07:53:34;2.67;;;1.10;;
8353;SDS011;4656;48.090;11.498;2023-11-21T07:55:36;0.90;;;0.90;;
8353;SDS011;4656;48.090;11.498;2023-11-21T07:57:38;1.45;;;0.82;;
8353;SDS011;4656;48.090;11.498;2023-11-21T07:59:40;2.30;;;1.20;;
8353;SDS011;4656;48.090;11.498;2023-11-21T08:01:42;2.95;;;1.10;;
8353;SDS011;4656;48.090;11.498;2023-11-21T08:03:45;1.40;;;1.10;;
8353;SDS011;4656;48.090;11.498;2023-11-21T08:05:51;1.00;;;0.90;;
8353;SDS011;4656;48.090;11.498;2023-11-21T08:07:55;1.20;;;0.80;;
8353;SDS011;4656;48.090;11.498;2023-11-21T08:09:57;2.00;;;0.95;;
8353;SDS011;4656;48.090;11.498;2023-11-21T08:11:58;1.27;;;1.02;;
8353;SDS011;4656;48.090;11.498;2023-11-21T08:14:02;2.78;;;1.08;;
8353;SDS011;4656;48.090;11.498;2023-11-21T08:16:05;2.65;;;1.10;;
8353;SDS011;4656;48.090;11.498;2023-11-21T08:18:07;1.75;;;1.00;;
8353;SDS011;4656;48.090;11.498;2023-11-21T08:20:10;0.90;;;0.82;;
8353;SDS011;4656;48.090;11.498;2023-11-21T08:22:16;1.70;;;0.88;;
8353;SDS011;4656;48.090;11.498;2023-11-21T08:24:19;1.90;;;0.93;;
8353;SDS011;4656;48.090;11.498;2023-11-21T08:26:22;1.03;;;0.90;;
8353;SDS011;4656;48.090;11.498;2023-11-21T08:28:24;0.90;;;0.80;;
8353;SDS011;4656;48.090;11.498;2023-11-21T08:30:26;1.33;;;0.90;;
8353;SDS011;4656;48.090;11.498;2023-11-21T08:32:30;2.70;;;0.98;;
8353;SDS011;4656;48.090;11.498;2023-11-21T08:34:33;2.95;;;0.95;;
8353;SDS011;4656;48.090;11.498;2023-11-21T08:36:35;1.30;;;0.90;;
8353;SDS011;4656;48.090;11.498;2023-11-21T08:38:37;2.50;;;1.20;;
8353;SDS011;4656;48.090;11.498;2023-11-21T08:40:42;2.85;;;0.90;;
8353;SDS011;4656;48.090;11.498;2023-11-21T08:42:44;2.83;;;1.08;;
8353;SDS011;4656;48.090;11.498;2023-11-21T08:44:47;0.80;;;0.80;;
8353;SDS011;4656;48.090;11.498;2023-11-21T08:46:49;1.45;;;0.82;;
8353;SDS011;4656;48.090;11.498;2023-11-21T08:48:51;2.30;;;0.90;;
8353;SDS011;4656;48.090;11.498;2023-11-21T08:50:53;2.53;;;0.85;;
8353;SDS011;4656;48.090;11.498;2023-11-21T08:52:55;1.20;;;0.95;;
8353;SDS011;4656;48.090;11.498;2023-11-21T08:54:57;0.98;;;0.90;;
8353;SDS011;4656;48.090;11.498;2023-11-21T08:57:04;0.80;;;0.80;;
8353;SDS011;4656;48.090;11.498;2023-11-21T08:59:06;2.08;;;0.98;;
8353;SDS011;4656;48.090;11.498;2023-11-21T09:01:08;2.75;;;1.00;;
8353;SDS011;4656;48.090;11.498;2023-11-21T09:03:12;1.95;;;1.27;;
8353;SDS011;4656;48.090;11.498;2023-11-21T09:05:15;0.70;;;0.70;;
8353;SDS011;4656;48.090;11.498;2023-11-21T09:07:17;1.30;;;0.90;;
8353;SDS011;4656;48.090;11.498;2023-11-21T09:09:20;1.80;;;1.08;;
8353;SDS011;4656;48.090;11.498;2023-11-21T09:11:24;1.80;;;1.08;;
8353;SDS011;4656;48.090;11.498;2023-11-21T09:13:34;1.13;;;1.00;;
8353;SDS011;4656;48.090;11.498;2023-11-21T09:15:36;1.00;;;0.80;;
8353;SDS011;4656;48.090;11.498;2023-11-21T09:17:39;1.25;;;0.82;;
8353;SDS011;4656;48.090;11.498;2023-11-21T09:19:42;0.93;;;0.77;;
8353;SDS011;4656;48.090;11.498;2023-11-21T09:21:47;1.92;;;1.08;;
8353;SDS011;4656;48.090;11.498;2023-11-21T09:23:49;1.80;;;1.40;;
8353;SDS011;4656;48.090;11.498;2023-11-21T09:25:51;1.30;;;0.95;;
8353;SDS011;4656;48.090;11.498;2023-11-21T09:27:56;2.87;;;1.07;;
8353;SDS011;4656;48.090;11.498;2023-11-21T09:30:00;2.40;;;1.02;;
8353;SDS011;4656;48.090;11.498;2023-11-21T09:32:01;2.50;;;1.25;;
8353;SDS011;4656;48.090;11.498;2023-11-21T09:34:03;2.58;;;1.20;;
8353;SDS011;4656;48.090;11.498;2023-11-21T09:36:10;2.17;;;1.27;;
8353;SDS011;4656;48.090;11.498;2023-11-21T09:38:13;1.20;;;1.10;;
8353;SDS011;4656;48.090;11.498;2023-11-21T09:40:15;1.55;;;1.02;;
8353;SDS011;4656;48.090;11.498;2023-11-21T09:42:23;3.58;;;0.90;;
8353;SDS011;4656;48.090;11.498;2023-11-21T09:44:30;2.10;;;1.02;;
8353;SDS011;4656;48.090;11.498;2023-11-21T09:46:35;1.10;;;0.95;;
8353;SDS011;4656;48.090;11.498;2023-11-21T09:48:39;1.70;;;1.20;;
8353;SDS011;4656;48.090;11.498;2023-11-21T09:50:41;2.00;;;1.10;;
8353;SDS011;4656;48.090;11.498;2023-11-21T09:55:01;1.93;;;1.20;;
8353;SDS011;4656;48.090;11.498;2023-11-21T09:57:05;1.63;;;1.05;;
8353;SDS011;4656;48.090;11.498;2023-11-21T09:59:10;2.55;;;1.20;;
8353;SDS011;4656;48.090;11.498;2023-11-21T10:01:13;1.40;;;1.10;;
8353;SDS011;4656;48.090;11.498;2023-11-21T10:03:19;1.88;;;1.30;;
8353;SDS011;4656;48.090;11.498;2023-11-21T10:05:21;3.08;;;1.38;;
8353;SDS011;4656;48.090;11.498;2023-11-21T10:07:23;4.05;;;1.90;;
8353;SDS011;4656;48.090;11.498;2023-11-21T10:09:25;5.05;;;2.40;;
8353;SDS011;4656;48.090;11.498;2023-11-21T10:11:28;1.55;;;1.30;;
8353;SDS011;4656;48.090;11.498;2023-11-21T10:13:31;2.10;;;1.15;;
8353;SDS011;4656;48.090;11.498;2023-11-21T10:15:35;2.78;;;1.50;;
8353;SDS011;4656;48.090;11.498;2023-11-21T10:17:38;3.10;;;1.50;;
8353;SDS011;4656;48.090;11.498;2023-11-21T10:19:44;1.80;;;1.17;;
8353;SDS011;4656;48.090;11.498;2023-11-21T10:21:48;2.88;;;1.13;;
8353;SDS011;4656;48.090;11.498;2023-11-21T10:23:51;2.03;;;1.15;;
8353;SDS011;4656;48.090;11.498;2023-11-21T10:25:55;2.13;;;1.10;;
8353;SDS011;4656;48.090;11.498;2023-11-21T10:27:59;2.47;;;1.10;;
8353;SDS011;4656;48.090;11.498;2023-11-21T10:30:02;1.87;;;1.20;;
8353;SDS011;4656;48.090;11.498;2023-11-21T10:32:03;3.00;;;1.15;;
8353;SDS011;4656;48.090;11.498;2023-11-21T10:34:15;3.05;;;1.40;;
8353;SDS011;4656;48.090;11.498;2023-11-21T10:36:24;1.85;;;1.10;;
8353;SDS011;4656;48.090;11.498;2023-11-21T10:38:26;1.05;;;0.90;;
8353;SDS011;4656;48.090;11.498;2023-11-21T10:40:30;3.03;;;1.50;;
8353;SDS011;4656;48.090;11.498;2023-11-21T10:42:32;2.40;;;1.33;;
8353;SDS011;4656;48.090;11.498;2023-11-21T10:44:34;1.33;;;1.02;;
8353;SDS011;4656;48.090;11.498;2023-11-21T10:46:36;3.10;;;1.30;;
8353;SDS011;4656;48.090;11.498;2023-11-21T10:48:42;2.33;;;1.15;;
8353;SDS011;4656;48.090;11.498;2023-11-21T10:50:45;1.42;;;1.27;;
8353;SDS011;4656;48.090;11.498;2023-11-21T10:52:48;2.38;;;1.35;;
8353;SDS011;4656;48.090;11.498;2023-11-21T10:54:50;2.95;;;1.38;;
8353;SDS011;4656;48.090;11.498;2023-11-21T10:56:53;3.60;;;1.38;;
8353;SDS011;4656;48.090;11.498;2023-11-21T10:58:58;2.70;;;1.30;;
8353;SDS011;4656;48.090;11.498;2023-11-21T11:01:01;1.45;;;1.35;;
8353;SDS011;4656;48.090;11.498;2023-11-21T11:03:04;2.45;;;1.27;;
8353;SDS011;4656;48.090;11.498;2023-11-21T11:05:06;2.17;;;1.05;;
8353;SDS011;4656;48.090;11.498;2023-11-21T11:07:11;1.33;;;1.10;;
8353;SDS011;4656;48.090;11.498;2023-11-21T11:09:17;1.85;;;1.10;;
8353;SDS011;4656;48.090;11.498;2023-11-21T11:11:18;1.48;;;1.00;;
8353;SDS011;4656;48.090;11.498;2023-11-21T11:13:20;1.63;;;1.35;;
8353;SDS011;4656;48.090;11.498;2023-11-21T11:15:23;2.03;;;1.08;;
8353;SDS011;4656;48.090;11.498;2023-11-21T11:17:25;2.15;;;1.30;;
8353;SDS011;4656;48.090;11.498;2023-11-21T11:19:27;1.00;;;0.77;;
8353;SDS011;4656;48.090;11.498;2023-11-21T11:21:32;2.47;;;1.13;;
8353;SDS011;4656;48.090;11.498;2023-11-21T11:23:44;1.50;;;1.00;;
8353;SDS011;4656;48.090;11.498;2023-11-21T11:25:53;2.55;;;1.13;;
8353;SDS011;4656;48.090;11.498;2023-11-21T11:27:59;2.70;;;1.27;;
8353;SDS011;4656;48.090;11.498;2023-11-21T11:30:06;1.20;;;0.90;;
8353;SDS011;4656;48.090;11.498;2023-11-21T11:32:10;1.42;;;0.82;;
8353;SDS011;4656;48.090;11.498;2023-11-21T11:34:17;1.23;;;0.95;;
8353;SDS011;4656;48.090;11.498;2023-11-21T11:36:22;1.35;;;1.10;;
8353;SDS011;4656;48.090;11.498;2023-11-21T11:38:30;1.45;;;1.00;;
8353;SDS011;4656;48.090;11.498;2023-11-21T11:40:40;2.35;;;1.10;;
8353;SDS011;4656;48.090;11.498;2023-11-21T11:42:56;1.33;;;1.15;;
8353;SDS011;4656;48.090;11.498;2023-11-21T11:44:59;1.13;;;1.00;;
8353;SDS011;4656;48.090;11.498;2023-11-21T11:47:01;2.33;;;1.20;;
8353;SDS011;4656;48.090;11.498;2023-11-21T11:49:02;2.90;;;1.27;;
8353;SDS011;4656;48.090;11.498;2023-11-21T11:51:05;2.55;;;1.15;;
8353;SDS011;4656;48.090;11.498;2023-11-21T11:53:13;1.67;;;1.13;;
8353;SDS011;4656;48.090;11.498;2023-11-21T11:55:15;1.85;;;0.98;;
8353;SDS011;4656;48.090;11.498;2023-11-21T11:57:19;1.35;;;1.17;;
8353;SDS011;4656;48.090;11.498;2023-11-21T11:59:21;4.65;;;1.23;;
8353;SDS011;4656;48.090;11.498;2023-11-21T12:01:24;1.13;;;1.02;;
8353;SDS011;4656;48.090;11.498;2023-11-21T12:03:26;2.03;;;1.02;;
8353;SDS011;4656;48.090;11.498;2023-11-21T12:05:28;1.52;;;1.17;;
8353;SDS011;4656;48.090;11.498;2023-11-21T12:07:38;2.78;;;1.40;;
8353;SDS011;4656;48.090;11.498;2023-11-21T12:09:40;3.33;;;1.20;;
8353;SDS011;4656;48.090;11.498;2023-11-21T12:11:42;2.58;;;1.15;;
8353;SDS011;4656;48.090;11.498;2023-11-21T12:13:44;2.85;;;1.50;;
8353;SDS011;4656;48.090;11.498;2023-11-21T12:15:49;2.55;;;1.38;;
8353;SDS011;4656;48.090;11.498;2023-11-21T12:17:51;1.27;;;1.00;;
8353;SDS011;4656;48.090;11.498;2023-11-21T12:19:53;2.45;;;1.10;;
8353;SDS011;4656;48.090;11.498;2023-11-21T12:21:55;1.83;;;1.00;;
8353;SDS011;4656;48.090;11.498;2023-11-21T12:23:59;1.30;;;0.90;;
8353;SDS011;4656;48.090;11.498;2023-11-21T12:26:01;2.58;;;1.10;;
8353;SDS011;4656;48.090;11.498;2023-11-21T12:28:03;1.20;;;1.10;;
8353;SDS011;4656;48.090;11.498;2023-11-21T12:30:06;1.80;;;1.15;;
8353;SDS011;4656;48.090;11.498;2023-11-21T12:32:14;1.53;;;1.10;;
8353;SDS011;4656;48.090;11.498;2023-11-21T12:34:18;1.58;;;1.10;;